Flight Track Log - Related Links

Times and Time Zones

All times are in EDT time to prevent confusion due to time zone crossing. See the UPS1121 flight status page for this flight to view local times or setup timezone preferences in your user account.

Time Position Orientation Groundspeed Altitude Reporting Facility
EDT Latitude Longitude Course Direction KTS MPH feet Rate Location/Type
Wed 10:02:37 PM 41.9375 -72.6942 186° South 132 152 1,000  Level Boston Center
Wed 10:04:38 PM 41.8417 -72.7075 186° South 231 266 5,900 2,885 Climbing Boston Center
Wed 10:05:40 PM 41.7686 -72.6461 148° Southeast 254 292 9,800 2,803 Climbing Boston Center
Wed 10:06:40 PM 41.7000 -72.5986 153° Southeast 292 336 11,600 2,288 Climbing Boston Center
Wed 10:07:38 PM 41.6125 -72.5039 141° Southeast 355 409 14,300 2,450 Climbing Boston Center
Wed 10:08:40 PM 41.5458 -72.4122 134° Southeast 372 428 16,500 1,328 Climbing Boston Center
Wed 10:09:40 PM 41.4292 -72.3819 169° South 380 437 17,000 252 Climbing Boston Center
Wed 10:10:39 PM 41.3314 -72.4069 191° South 387 445 17,000 559 Level Boston Center
Wed 10:11:38 PM 41.2208 -72.4264 188° South 399 459 18,100 1,488 Climbing Boston Center
Wed 10:12:40 PM 41.1167 -72.4814 202° Southwest 405 466 20,000 950 Climbing Boston Center
Wed 10:13:38 PM 41.0250 -72.5639 214° Southwest 399 459 20,000  Level Boston Center
Wed 10:14:40 PM 40.9331 -72.6489 215° Southwest 404 465 20,000  Level Boston Center
Wed 10:16:33 PM 40.7589 -72.8014 214° Southwest 408 470 20,000  Level New York Center
Wed 10:17:33 PM 40.6658 -72.8833 214° Southwest 403 464 20,000  Level New York Center
Wed 10:18:33 PM 40.5728 -72.9625 213° Southwest 403 464 20,000  Level New York Center
Wed 10:19:33 PM 40.4817 -73.0439 214° Southwest 403 464 20,000  Level New York Center
Wed 10:20:33 PM 40.3903 -73.1256 214° Southwest 403 464 20,000  Level New York Center
Wed 10:21:33 PM 40.2950 -73.2064 213° Southwest 403 464 20,000  Level New York Center
Wed 10:22:33 PM 40.2036 -73.2875 214° Southwest 403 464 20,000  Level New York Center
Wed 10:23:33 PM 40.1103 -73.3683 214° Southwest 403 464 20,000  Level New York Center
Wed 10:24:33 PM 40.0167 -73.4461 212° Southwest 403 464 20,000  Level New York Center
Wed 10:26:33 PM 39.8411 -73.6419 221° Southwest 403 464 20,000  Level New York Center
Wed 10:27:12 PM 39.7967 -73.7119 230° Southwest 362 417 20,000  Level Washington Center
Wed 10:28:13 PM 39.7253 -73.8217 230° Southwest 378 435 20,000 -857 Level Washington Center
Wed 10:29:11 PM 39.6561 -73.9286 230° Southwest 389 448 18,300 -1,916 Descending Washington Center
Wed 10:30:12 PM 39.5908 -74.0350 231° Southwest 389 448 16,200 -2,033 Descending Washington Center
Wed 10:31:12 PM 39.5297 -74.1439 234° Southwest 384 442 14,200 -1,109 Descending Washington Center
Wed 10:32:11 PM 39.5250 -74.2706 267° West 354 407 14,000 -877 Descending Washington Center
Wed 10:34:03 PM 39.5333 -74.5000 273° West 341 392 11,700 -1,247 Descending Philadelphia TRACON
Wed 10:34:45 PM 39.5333 -74.5833 270° West 326 375 10,800 -1,059 Descending Philadelphia TRACON
Wed 10:35:45 PM 39.5333 -74.7000 270° West 300 345 9,900 -900 Descending Philadelphia TRACON
Wed 10:36:45 PM 39.5667 -74.8000 293° West 288 331 9,000 -421 Descending Philadelphia TRACON
Wed 10:37:39 PM 39.5833 -74.8833 285° West 296 341 9,100 -105 Climbing Philadelphia TRACON
Wed 10:38:39 PM 39.6000 -74.9833 282° West 294 338 8,800 -684 Descending Philadelphia TRACON
Wed 10:39:33 PM 39.6167 -75.0833 282° West 285 328 7,800 -1,250 Descending Philadelphia TRACON
Wed 10:40:39 PM 39.6333 -75.1833 282° West 276 318 6,300 -1,381 Descending Philadelphia TRACON
Wed 10:41:39 PM 39.6500 -75.2833 282° West 281 323 4,900 -950 Descending Philadelphia TRACON
Wed 10:42:39 PM 39.6667 -75.3833 282° West 248 285 4,400 -667 Descending Philadelphia TRACON
Wed 10:43:45 PM 39.7000 -75.4667 297° West 233 268 3,500 -667 Descending Philadelphia TRACON
Wed 10:44:45 PM 39.7500 -75.5167 322° Northwest 229 264 3,000 -174 Descending Philadelphia TRACON
Wed 10:46:03 PM 39.8167 -75.5000 11° North 180 207 3,100 -174 Climbing Philadelphia TRACON
Wed 10:47:03 PM 39.8333 -75.4500 67° East 181 208 2,600 -650 Descending Philadelphia TRACON
Wed 10:48:03 PM 39.8333 -75.3833 90° East 157 181 1,800 -750 Descending Philadelphia TRACON
Wed 10:49:03 PM 39.8500 -75.3500 57° Northeast 108 124 1,100 -600 Descending Philadelphia TRACON
Wed 10:50:03 PM 39.8500 -75.3000 90° East 117 135 600 -500 Descending Philadelphia TRACON
Wed 10:52:00 PM 39.8667 -75.2333 75° East  Level FlightAware Approximate

Login

Don't have an account? Register now (free) for customized features, flight alerts, and more!